sensor_id;sensor_type;location;lat;lon;timestamp;temperature;humidity
8824;DHT22;4448;50.904;4.694;2024-01-06T00:01:47;9.00;99.90
8824;DHT22;4448;50.904;4.694;2024-01-06T00:04:12;9.00;99.90
8824;DHT22;4448;50.904;4.694;2024-01-06T00:06:38;9.00;99.90
8824;DHT22;4448;50.904;4.694;2024-01-06T00:09:04;9.00;99.90
8824;DHT22;4448;50.904;4.694;2024-01-06T00:11:30;8.90;99.90
8824;DHT22;4448;50.904;4.694;2024-01-06T00:13:55;8.90;99.90
8824;DHT22;4448;50.904;4.694;2024-01-06T00:16:21;8.90;99.90
8824;DHT22;4448;50.904;4.694;2024-01-06T00:18:47;8.90;99.90
8824;DHT22;4448;50.904;4.694;2024-01-06T00:21:13;8.90;99.90
8824;DHT22;4448;50.904;4.694;2024-01-06T00:23:42;8.90;99.90
8824;DHT22;4448;50.904;4.694;2024-01-06T00:26:07;8.90;99.90
8824;DHT22;4448;50.904;4.694;2024-01-06T00:28:37;8.90;99.90
8824;DHT22;4448;50.904;4.694;2024-01-06T00:31:04;9.00;99.90
8824;DHT22;4448;50.904;4.694;2024-01-06T00:33:29;8.90;99.90
8824;DHT22;4448;50.904;4.694;2024-01-06T00:35:55;8.90;99.90
8824;DHT22;4448;50.904;4.694;2024-01-06T00:38:21;8.90;99.90
8824;DHT22;4448;50.904;4.694;2024-01-06T00:40:47;8.90;99.90
8824;DHT22;4448;50.904;4.694;2024-01-06T00:43:12;8.90;99.90
8824;DHT22;4448;50.904;4.694;2024-01-06T00:45:38;9.00;99.90
8824;DHT22;4448;50.904;4.694;2024-01-06T00:48:04;9.00;99.90
8824;DHT22;4448;50.904;4.694;2024-01-06T00:50:30;9.00;99.90
8824;DHT22;4448;50.904;4.694;2024-01-06T00:52:56;9.00;99.90
8824;DHT22;4448;50.904;4.694;2024-01-06T00:55:22;9.00;99.90
8824;DHT22;4448;50.904;4.694;2024-01-06T00:57:49;8.90;99.90
8824;DHT22;4448;50.904;4.694;2024-01-06T01:00:15;8.90;99.90
8824;DHT22;4448;50.904;4.694;2024-01-06T01:02:41;8.90;99.90
8824;DHT22;4448;50.904;4.694;2024-01-06T01:05:07;8.90;99.90
8824;DHT22;4448;50.904;4.694;2024-01-06T01:07:33;8.90;99.90
8824;DHT22;4448;50.904;4.694;2024-01-06T01:09:59;8.90;99.90
8824;DHT22;4448;50.904;4.694;2024-01-06T01:12:25;9.00;99.90
8824;DHT22;4448;50.904;4.694;2024-01-06T01:14:51;9.00;99.90
8824;DHT22;4448;50.904;4.694;2024-01-06T01:17:17;9.00;99.90
8824;DHT22;4448;50.904;4.694;2024-01-06T01:19:43;9.00;99.90
8824;DHT22;4448;50.904;4.694;2024-01-06T01:22:08;9.00;99.90
8824;DHT22;4448;50.904;4.694;2024-01-06T01:24:34;8.90;99.90
8824;DHT22;4448;50.904;4.694;2024-01-06T01:27:00;9.00;99.90
8824;DHT22;4448;50.904;4.694;2024-01-06T01:29:25;9.00;99.90
8824;DHT22;4448;50.904;4.694;2024-01-06T01:31:51;9.00;99.90
8824;DHT22;4448;50.904;4.694;2024-01-06T01:34:17;9.00;99.90
8824;DHT22;4448;50.904;4.694;2024-01-06T01:36:43;9.00;99.90
8824;DHT22;4448;50.904;4.694;2024-01-06T01:39:09;8.90;99.90
8824;DHT22;4448;50.904;4.694;2024-01-06T01:41:35;9.00;99.90
8824;DHT22;4448;50.904;4.694;2024-01-06T01:44:01;8.90;99.90
8824;DHT22;4448;50.904;4.694;2024-01-06T01:46:29;9.00;99.90
8824;DHT22;4448;50.904;4.694;2024-01-06T01:48:59;8.90;99.90
8824;DHT22;4448;50.904;4.694;2024-01-06T01:51:29;8.90;99.90
8824;DHT22;4448;50.904;4.694;2024-01-06T01:54:00;8.90;99.90
8824;DHT22;4448;50.904;4.694;2024-01-06T01:56:26;8.90;99.90
8824;DHT22;4448;50.904;4.694;2024-01-06T01:58:53;8.90;99.90
8824;DHT22;4448;50.904;4.694;2024-01-06T02:01:19;9.00;99.90
8824;DHT22;4448;50.904;4.694;2024-01-06T02:03:44;9.00;99.90
8824;DHT22;4448;50.904;4.694;2024-01-06T02:06:11;8.90;99.90
8824;DHT22;4448;50.904;4.694;2024-01-06T02:08:37;9.00;99.90
8824;DHT22;4448;50.904;4.694;2024-01-06T02:11:03;9.00;99.90
8824;DHT22;4448;50.904;4.694;2024-01-06T02:13:37;8.90;99.90
8824;DHT22;4448;50.904;4.694;2024-01-06T02:16:03;8.90;99.90
8824;DHT22;4448;50.904;4.694;2024-01-06T02:18:30;8.90;99.90
8824;DHT22;4448;50.904;4.694;2024-01-06T02:20:59;8.90;99.90
8824;DHT22;4448;50.904;4.694;2024-01-06T02:23:25;8.90;99.90
8824;DHT22;4448;50.904;4.694;2024-01-06T02:25:51;8.90;99.90
8824;DHT22;4448;50.904;4.694;2024-01-06T02:28:17;8.90;99.90
8824;DHT22;4448;50.904;4.694;2024-01-06T02:30:43;8.90;99.90
8824;DHT22;4448;50.904;4.694;2024-01-06T02:33:08;8.90;99.90
8824;DHT22;4448;50.904;4.694;2024-01-06T02:35:35;8.90;99.90
8824;DHT22;4448;50.904;4.694;2024-01-06T02:38:01;8.90;99.90
8824;DHT22;4448;50.904;4.694;2024-01-06T02:40:27;8.90;99.90
8824;DHT22;4448;50.904;4.694;2024-01-06T02:42:53;8.90;99.90
8824;DHT22;4448;50.904;4.694;2024-01-06T02:45:18;8.90;99.90
8824;DHT22;4448;50.904;4.694;2024-01-06T02:47:44;8.90;99.90
8824;DHT22;4448;50.904;4.694;2024-01-06T02:50:09;9.00;99.90
8824;DHT22;4448;50.904;4.694;2024-01-06T02:52:35;9.00;99.90
8824;DHT22;4448;50.904;4.694;2024-01-06T02:55:01;9.00;99.90
8824;DHT22;4448;50.904;4.694;2024-01-06T02:57:30;9.00;99.90
8824;DHT22;4448;50.904;4.694;2024-01-06T02:59:56;9.00;99.90
8824;DHT22;4448;50.904;4.694;2024-01-06T03:02:23;8.90;99.90
8824;DHT22;4448;50.904;4.694;2024-01-06T03:04:48;8.90;99.90
8824;DHT22;4448;50.904;4.694;2024-01-06T03:07:14;8.90;99.90
8824;DHT22;4448;50.904;4.694;2024-01-06T03:09:40;8.90;99.90
8824;DHT22;4448;50.904;4.694;2024-01-06T03:12:06;9.00;99.90
8824;DHT22;4448;50.904;4.694;2024-01-06T03:14:34;8.90;99.90
8824;DHT22;4448;50.904;4.694;2024-01-06T03:17:00;9.00;99.90
8824;DHT22;4448;50.904;4.694;2024-01-06T03:19:26;9.00;99.90
8824;DHT22;4448;50.904;4.694;2024-01-06T03:21:53;8.90;99.90
8824;DHT22;4448;50.904;4.694;2024-01-06T03:24:19;8.90;99.90
8824;DHT22;4448;50.904;4.694;2024-01-06T03:26:45;8.90;99.90
8824;DHT22;4448;50.904;4.694;2024-01-06T03:29:11;8.90;99.90
8824;DHT22;4448;50.904;4.694;2024-01-06T03:31:37;8.90;99.90
8824;DHT22;4448;50.904;4.694;2024-01-06T03:34:03;8.90;99.90
8824;DHT22;4448;50.904;4.694;2024-01-06T03:36:28;8.90;99.90
8824;DHT22;4448;50.904;4.694;2024-01-06T03:38:54;8.90;99.90
8824;DHT22;4448;50.904;4.694;2024-01-06T03:41:19;8.90;99.90
8824;DHT22;4448;50.904;4.694;2024-01-06T03:43:45;8.90;99.90
8824;DHT22;4448;50.904;4.694;2024-01-06T03:46:11;8.90;99.90
8824;DHT22;4448;50.904;4.694;2024-01-06T03:48:36;8.90;99.90
8824;DHT22;4448;50.904;4.694;2024-01-06T03:51:02;8.90;99.90
8824;DHT22;4448;50.904;4.694;2024-01-06T03:53:28;8.90;99.90
8824;DHT22;4448;50.904;4.694;2024-01-06T03:55:54;8.90;99.90
8824;DHT22;4448;50.904;4.694;2024-01-06T03:58:19;8.90;99.90
8824;DHT22;4448;50.904;4.694;2024-01-06T04:00:45;8.80;99.90
8824;DHT22;4448;50.904;4.694;2024-01-06T04:03:11;8.80;99.90
8824;DHT22;4448;50.904;4.694;2024-01-06T04:05:36;8.90;99.90
8824;DHT22;4448;50.904;4.694;2024-01-06T04:08:02;8.80;99.90
8824;DHT22;4448;50.904;4.694;2024-01-06T04:10:28;8.90;99.90
8824;DHT22;4448;50.904;4.694;2024-01-06T04:12:53;8.80;99.90
8824;DHT22;4448;50.904;4.694;2024-01-06T04:15:19;8.80;99.90
8824;DHT22;4448;50.904;4.694;2024-01-06T04:17:48;8.80;99.90
8824;DHT22;4448;50.904;4.694;2024-01-06T04:20:14;8.80;99.90
8824;DHT22;4448;50.904;4.694;2024-01-06T04:22:40;8.70;99.90
8824;DHT22;4448;50.904;4.694;2024-01-06T04:25:05;8.80;99.90
8824;DHT22;4448;50.904;4.694;2024-01-06T04:27:31;8.70;99.90
8824;DHT22;4448;50.904;4.694;2024-01-06T04:29:59;8.70;99.90
8824;DHT22;4448;50.904;4.694;2024-01-06T04:32:25;8.70;99.90
8824;DHT22;4448;50.904;4.694;2024-01-06T04:34:50;8.70;99.90
8824;DHT22;4448;50.904;4.694;2024-01-06T04:37:16;8.60;99.90
8824;DHT22;4448;50.904;4.694;2024-01-06T04:39:42;8.60;99.90
8824;DHT22;4448;50.904;4.694;2024-01-06T04:42:07;8.60;99.90
8824;DHT22;4448;50.904;4.694;2024-01-06T04:44:33;8.60;99.90
8824;DHT22;4448;50.904;4.694;2024-01-06T04:46:59;8.60;99.90
8824;DHT22;4448;50.904;4.694;2024-01-06T04:49:24;8.60;99.90
8824;DHT22;4448;50.904;4.694;2024-01-06T04:51:50;8.60;99.90
8824;DHT22;4448;50.904;4.694;2024-01-06T04:54:16;8.60;99.90
8824;DHT22;4448;50.904;4.694;2024-01-06T04:56:41;8.60;99.90
8824;DHT22;4448;50.904;4.694;2024-01-06T04:59:07;8.60;99.90
8824;DHT22;4448;50.904;4.694;2024-01-06T05:01:33;8.60;99.90
8824;DHT22;4448;50.904;4.694;2024-01-06T05:03:58;8.60;99.90
8824;DHT22;4448;50.904;4.694;2024-01-06T05:06:24;8.60;99.90
8824;DHT22;4448;50.904;4.694;2024-01-06T05:08:50;8.60;99.90
8824;DHT22;4448;50.904;4.694;2024-01-06T05:11:16;8.60;99.90
8824;DHT22;4448;50.904;4.694;2024-01-06T05:13:42;8.60;99.90
8824;DHT22;4448;50.904;4.694;2024-01-06T05:16:08;8.60;99.90
8824;DHT22;4448;50.904;4.694;2024-01-06T05:18:34;8.50;99.90
8824;DHT22;4448;50.904;4.694;2024-01-06T05:21:01;8.50;99.90
8824;DHT22;4448;50.904;4.694;2024-01-06T05:23:27;8.50;99.90
8824;DHT22;4448;50.904;4.694;2024-01-06T05:25:53;8.50;99.90
8824;DHT22;4448;50.904;4.694;2024-01-06T05:28:18;8.50;99.90
8824;DHT22;4448;50.904;4.694;2024-01-06T05:30:44;8.50;99.90
8824;DHT22;4448;50.904;4.694;2024-01-06T05:33:10;8.50;99.90
8824;DHT22;4448;50.904;4.694;2024-01-06T05:35:38;8.50;99.90
8824;DHT22;4448;50.904;4.694;2024-01-06T05:38:04;8.50;99.90
8824;DHT22;4448;50.904;4.694;2024-01-06T05:40:29;8.50;99.90
8824;DHT22;4448;50.904;4.694;2024-01-06T05:42:55;8.50;99.90
8824;DHT22;4448;50.904;4.694;2024-01-06T05:45:22;8.50;99.90
8824;DHT22;4448;50.904;4.694;2024-01-06T05:47:48;8.50;99.90
8824;DHT22;4448;50.904;4.694;2024-01-06T05:50:16;8.50;99.90
8824;DHT22;4448;50.904;4.694;2024-01-06T05:52:42;8.50;99.90
8824;DHT22;4448;50.904;4.694;2024-01-06T05:55:08;8.50;99.90
8824;DHT22;4448;50.904;4.694;2024-01-06T05:57:36;8.50;99.90
8824;DHT22;4448;50.904;4.694;2024-01-06T06:00:02;8.50;99.90
8824;DHT22;4448;50.904;4.694;2024-01-06T06:02:28;8.50;99.90
8824;DHT22;4448;50.904;4.694;2024-01-06T06:04:54;8.50;99.90
8824;DHT22;4448;50.904;4.694;2024-01-06T06:07:19;8.50;99.90
8824;DHT22;4448;50.904;4.694;2024-01-06T06:09:46;8.40;99.90
8824;DHT22;4448;50.904;4.694;2024-01-06T06:12:14;8.50;99.90
8824;DHT22;4448;50.904;4.694;2024-01-06T06:14:40;8.40;99.90
8824;DHT22;4448;50.904;4.694;2024-01-06T06:17:06;8.40;99.90
8824;DHT22;4448;50.904;4.694;2024-01-06T06:19:31;8.40;99.90
8824;DHT22;4448;50.904;4.694;2024-01-06T06:21:57;8.40;99.90
8824;DHT22;4448;50.904;4.694;2024-01-06T06:24:23;8.40;99.90
8824;DHT22;4448;50.904;4.694;2024-01-06T06:26:48;8.40;99.90
8824;DHT22;4448;50.904;4.694;2024-01-06T06:29:14;8.30;99.90
8824;DHT22;4448;50.904;4.694;2024-01-06T06:31:40;8.30;99.90
8824;DHT22;4448;50.904;4.694;2024-01-06T06:34:05;8.30;99.90
8824;DHT22;4448;50.904;4.694;2024-01-06T06:36:31;8.20;99.90
8824;DHT22;4448;50.904;4.694;2024-01-06T06:38:57;8.20;99.90
8824;DHT22;4448;50.904;4.694;2024-01-06T06:41:24;8.10;99.90
8824;DHT22;4448;50.904;4.694;2024-01-06T06:43:50;8.10;99.90
8824;DHT22;4448;50.904;4.694;2024-01-06T06:46:16;8.10;99.90
8824;DHT22;4448;50.904;4.694;2024-01-06T06:48:42;8.00;99.90
8824;DHT22;4448;50.904;4.694;2024-01-06T06:51:08;8.00;99.90
8824;DHT22;4448;50.904;4.694;2024-01-06T06:53:33;8.00;99.90
8824;DHT22;4448;50.904;4.694;2024-01-06T06:55:59;8.00;99.90
8824;DHT22;4448;50.904;4.694;2024-01-06T06:58:25;8.00;99.90
8824;DHT22;4448;50.904;4.694;2024-01-06T07:00:50;8.00;99.90
8824;DHT22;4448;50.904;4.694;2024-01-06T07:03:16;7.90;99.90
8824;DHT22;4448;50.904;4.694;2024-01-06T07:05:42;8.00;99.90
8824;DHT22;4448;50.904;4.694;2024-01-06T07:08:07;7.90;99.90
8824;DHT22;4448;50.904;4.694;2024-01-06T07:10:33;7.90;99.90
8824;DHT22;4448;50.904;4.694;2024-01-06T07:12:59;7.90;99.90
8824;DHT22;4448;50.904;4.694;2024-01-06T07:15:24;7.90;99.90
8824;DHT22;4448;50.904;4.694;2024-01-06T07:17:50;7.90;99.90
8824;DHT22;4448;50.904;4.694;2024-01-06T07:20:16;7.90;99.90
8824;DHT22;4448;50.904;4.694;2024-01-06T07:22:41;7.80;99.90
8824;DHT22;4448;50.904;4.694;2024-01-06T07:25:07;7.80;99.90
8824;DHT22;4448;50.904;4.694;2024-01-06T07:27:33;7.80;99.90
8824;DHT22;4448;50.904;4.694;2024-01-06T07:29:59;7.80;99.90
8824;DHT22;4448;50.904;4.694;2024-01-06T07:32:25;7.80;99.90
8824;DHT22;4448;50.904;4.694;2024-01-06T07:34:50;7.80;99.90
8824;DHT22;4448;50.904;4.694;2024-01-06T07:37:16;7.90;99.90
8824;DHT22;4448;50.904;4.694;2024-01-06T07:39:42;7.80;99.90
8824;DHT22;4448;50.904;4.694;2024-01-06T07:42:08;7.90;99.90
8824;DHT22;4448;50.904;4.694;2024-01-06T07:44:34;7.90;99.90
8824;DHT22;4448;50.904;4.694;2024-01-06T07:47:00;7.90;99.90
8824;DHT22;4448;50.904;4.694;2024-01-06T07:49:27;7.90;99.90
8824;DHT22;4448;50.904;4.694;2024-01-06T07:51:53;7.80;99.90
8824;DHT22;4448;50.904;4.694;2024-01-06T07:54:19;7.80;99.90
8824;DHT22;4448;50.904;4.694;2024-01-06T07:56:44;7.90;99.90
8824;DHT22;4448;50.904;4.694;2024-01-06T07:59:10;7.80;99.90
8824;DHT22;4448;50.904;4.694;2024-01-06T08:01:36;7.90;99.90
8824;DHT22;4448;50.904;4.694;2024-01-06T08:04:02;7.90;99.90
8824;DHT22;4448;50.904;4.694;2024-01-06T08:06:28;7.80;99.90
8824;DHT22;4448;50.904;4.694;2024-01-06T08:08:54;7.90;99.90
8824;DHT22;4448;50.904;4.694;2024-01-06T08:11:20;7.90;99.90
8824;DHT22;4448;50.904;4.694;2024-01-06T08:13:46;7.90;99.90
8824;DHT22;4448;50.904;4.694;2024-01-06T08:16:12;7.90;99.90
8824;DHT22;4448;50.904;4.694;2024-01-06T08:18:38;7.90;99.90
8824;DHT22;4448;50.904;4.694;2024-01-06T08:21:04;7.90;99.90
8824;DHT22;4448;50.904;4.694;2024-01-06T08:23:29;7.90;99.90
8824;DHT22;4448;50.904;4.694;2024-01-06T08:25:55;7.90;99.90
8824;DHT22;4448;50.904;4.694;2024-01-06T08:28:21;7.90;99.90
8824;DHT22;4448;50.904;4.694;2024-01-06T08:30:49;7.90;99.90
8824;DHT22;4448;50.904;4.694;2024-01-06T08:33:14;7.90;99.90
8824;DHT22;4448;50.904;4.694;2024-01-06T08:35:40;7.90;99.90
8824;DHT22;4448;50.904;4.694;2024-01-06T08:38:09;7.90;99.90
8824;DHT22;4448;50.904;4.694;2024-01-06T08:40:35;7.90;99.90
8824;DHT22;4448;50.904;4.694;2024-01-06T08:43:01;7.90;99.90
8824;DHT22;4448;50.904;4.694;2024-01-06T08:45:27;7.90;99.90
8824;DHT22;4448;50.904;4.694;2024-01-06T08:47:53;7.90;99.90
8824;DHT22;4448;50.904;4.694;2024-01-06T08:50:19;7.90;99.90
8824;DHT22;4448;50.904;4.694;2024-01-06T08:52:44;7.90;99.90
8824;DHT22;4448;50.904;4.694;2024-01-06T08:55:10;7.90;99.90
8824;DHT22;4448;50.904;4.694;2024-01-06T08:57:36;7.90;99.90
8824;DHT22;4448;50.904;4.694;2024-01-06T09:00:05;7.90;99.90
8824;DHT22;4448;50.904;4.694;2024-01-06T09:02:31;7.90;99.90
8824;DHT22;4448;50.904;4.694;2024-01-06T09:04:57;7.90;99.90
8824;DHT22;4448;50.904;4.694;2024-01-06T09:07:23;7.80;99.90
8824;DHT22;4448;50.904;4.694;2024-01-06T09:09:48;7.80;99.90
8824;DHT22;4448;50.904;4.694;2024-01-06T09:12:14;7.80;99.90
8824;DHT22;4448;50.904;4.694;2024-01-06T09:14:40;7.80;99.90
8824;DHT22;4448;50.904;4.694;2024-01-06T09:17:06;7.80;99.90
8824;DHT22;4448;50.904;4.694;2024-01-06T09:19:32;7.80;99.90
8824;DHT22;4448;50.904;4.694;2024-01-06T09:21:57;7.80;99.90
8824;DHT22;4448;50.904;4.694;2024-01-06T09:24:23;7.80;99.90
8824;DHT22;4448;50.904;4.694;2024-01-06T09:26:49;7.80;99.90
8824;DHT22;4448;50.904;4.694;2024-01-06T09:29:17;7.80;99.90
8824;DHT22;4448;50.904;4.694;2024-01-06T09:31:43;7.80;99.90
8824;DHT22;4448;50.904;4.694;2024-01-06T09:34:12;7.80;99.90
8824;DHT22;4448;50.904;4.694;2024-01-06T09:36:38;7.80;99.90
8824;DHT22;4448;50.904;4.694;2024-01-06T09:39:04;7.90;99.90
8824;DHT22;4448;50.904;4.694;2024-01-06T09:41:33;7.80;99.90
8824;DHT22;4448;50.904;4.694;2024-01-06T09:43:59;7.90;99.90
8824;DHT22;4448;50.904;4.694;2024-01-06T09:46:26;7.90;99.90
8824;DHT22;4448;50.904;4.694;2024-01-06T09:48:53;7.90;99.90
8824;DHT22;4448;50.904;4.694;2024-01-06T09:51:20;7.90;99.90
8824;DHT22;4448;50.904;4.694;2024-01-06T09:53:57;7.90;99.90
8824;DHT22;4448;50.904;4.694;2024-01-06T09:56:25;7.90;99.90
8824;DHT22;4448;50.904;4.694;2024-01-06T09:58:51;7.80;99.90
8824;DHT22;4448;50.904;4.694;2024-01-06T10:01:21;7.70;99.90
8824;DHT22;4448;50.904;4.694;2024-01-06T10:03:46;7.60;99.90
8824;DHT22;4448;50.904;4.694;2024-01-06T10:06:16;7.50;99.90
8824;DHT22;4448;50.904;4.694;2024-01-06T10:08:43;7.40;99.90
8824;DHT22;4448;50.904;4.694;2024-01-06T10:11:08;7.40;99.90
8824;DHT22;4448;50.904;4.694;2024-01-06T10:13:35;7.40;99.90
8824;DHT22;4448;50.904;4.694;2024-01-06T10:16:03;7.40;99.90
8824;DHT22;4448;50.904;4.694;2024-01-06T10:18:28;7.50;99.90
8824;DHT22;4448;50.904;4.694;2024-01-06T10:20:55;7.50;99.90
8824;DHT22;4448;50.904;4.694;2024-01-06T10:23:26;7.50;99.90
8824;DHT22;4448;50.904;4.694;2024-01-06T10:25:54;7.50;99.90
8824;DHT22;4448;50.904;4.694;2024-01-06T10:28:23;7.50;99.90
8824;DHT22;4448;50.904;4.694;2024-01-06T10:30:53;7.50;99.90
8824;DHT22;4448;50.904;4.694;2024-01-06T10:33:20;7.50;99.90
8824;DHT22;4448;50.904;4.694;2024-01-06T10:35:47;7.50;99.90
8824;DHT22;4448;50.904;4.694;2024-01-06T10:38:14;7.50;99.90
8824;DHT22;4448;50.904;4.694;2024-01-06T10:41:02;7.60;99.90
8824;DHT22;4448;50.904;4.694;2024-01-06T10:43:36;7.60;99.90
8824;DHT22;4448;50.904;4.694;2024-01-06T10:46:06;7.60;99.90
8824;DHT22;4448;50.904;4.694;2024-01-06T10:48:36;7.60;99.90
8824;DHT22;4448;50.904;4.694;2024-01-06T10:51:04;7.60;99.90
8824;DHT22;4448;50.904;4.694;2024-01-06T10:53:33;7.60;99.90
8824;DHT22;4448;50.904;4.694;2024-01-06T10:56:03;7.60;99.90
8824;DHT22;4448;50.904;4.694;2024-01-06T10:58:30;7.60;99.90
8824;DHT22;4448;50.904;4.694;2024-01-06T11:00:56;7.60;99.90
8824;DHT22;4448;50.904;4.694;2024-01-06T11:03:23;7.60;99.90
8824;DHT22;4448;50.904;4.694;2024-01-06T11:05:50;7.60;99.90
8824;DHT22;4448;50.904;4.694;2024-01-06T11:08:19;7.60;99.90
8824;DHT22;4448;50.904;4.694;2024-01-06T11:10:46;7.60;99.90
8824;DHT22;4448;50.904;4.694;2024-01-06T11:13:15;7.60;99.90
8824;DHT22;4448;50.904;4.694;2024-01-06T11:15:55;7.60;99.90
8824;DHT22;4448;50.904;4.694;2024-01-06T11:18:46;7.60;99.90
8824;DHT22;4448;50.904;4.694;2024-01-06T11:23:40;7.60;99.90
8824;DHT22;4448;50.904;4.694;2024-01-06T11:26:09;7.60;99.90
8824;DHT22;4448;50.904;4.694;2024-01-06T11:28:47;7.60;99.90
8824;DHT22;4448;50.904;4.694;2024-01-06T11:31:13;7.60;99.90
8824;DHT22;4448;50.904;4.694;2024-01-06T11:33:43;7.60;99.90
8824;DHT22;4448;50.904;4.694;2024-01-06T11:36:09;7.60;99.90
8824;DHT22;4448;50.904;4.694;2024-01-06T11:38:39;7.60;99.90
8824;DHT22;4448;50.904;4.694;2024-01-06T11:41:08;7.50;99.90
8824;DHT22;4448;50.904;4.694;2024-01-06T11:43:38;7.50;99.90
8824;DHT22;4448;50.904;4.694;2024-01-06T11:46:10;7.50;99.90
8824;DHT22;4448;50.904;4.694;2024-01-06T11:48:37;7.50;99.90
8824;DHT22;4448;50.904;4.694;2024-01-06T11:51:03;7.50;99.90
8824;DHT22;4448;50.904;4.694;2024-01-06T11:53:29;7.50;99.90
8824;DHT22;4448;50.904;4.694;2024-01-06T11:55:55;7.50;99.90
8824;DHT22;4448;50.904;4.694;2024-01-06T11:58:21;7.40;99.90
8824;DHT22;4448;50.904;4.694;2024-01-06T12:00:55;7.40;99.90
8824;DHT22;4448;50.904;4.694;2024-01-06T12:03:22;7.40;99.90
8824;DHT22;4448;50.904;4.694;2024-01-06T12:06:01;7.40;99.90
8824;DHT22;4448;50.904;4.694;2024-01-06T12:08:28;7.40;99.90
8824;DHT22;4448;50.904;4.694;2024-01-06T12:11:04;7.40;99.90
8824;DHT22;4448;50.904;4.694;2024-01-06T12:13:30;7.40;99.90
8824;DHT22;4448;50.904;4.694;2024-01-06T12:15:56;7.40;99.90
8824;DHT22;4448;50.904;4.694;2024-01-06T12:18:22;7.40;99.90
8824;DHT22;4448;50.904;4.694;2024-01-06T12:20:50;7.40;99.90
8824;DHT22;4448;50.904;4.694;2024-01-06T12:23:29;7.40;99.90
8824;DHT22;4448;50.904;4.694;2024-01-06T12:25:55;7.50;99.90
8824;DHT22;4448;50.904;4.694;2024-01-06T12:28:21;7.50;99.90
8824;DHT22;4448;50.904;4.694;2024-01-06T12:30:46;7.50;99.90
8824;DHT22;4448;50.904;4.694;2024-01-06T12:33:12;7.40;99.90
8824;DHT22;4448;50.904;4.694;2024-01-06T12:35:39;7.40;99.90
8824;DHT22;4448;50.904;4.694;2024-01-06T12:38:05;7.40;99.90
8824;DHT22;4448;50.904;4.694;2024-01-06T12:40:31;7.40;99.90
8824;DHT22;4448;50.904;4.694;2024-01-06T12:42:57;7.40;99.90
8824;DHT22;4448;50.904;4.694;2024-01-06T12:45:23;7.40;99.90
8824;DHT22;4448;50.904;4.694;2024-01-06T12:47:48;7.40;99.90
8824;DHT22;4448;50.904;4.694;2024-01-06T12:50:14;7.40;99.90
8824;DHT22;4448;50.904;4.694;2024-01-06T12:52:40;7.40;99.90
8824;DHT22;4448;50.904;4.694;2024-01-06T12:55:07;7.40;99.90
8824;DHT22;4448;50.904;4.694;2024-01-06T12:57:33;7.40;99.90
8824;DHT22;4448;50.904;4.694;2024-01-06T12:59:59;7.40;99.90
8824;DHT22;4448;50.904;4.694;2024-01-06T13:02:25;7.30;99.90
8824;DHT22;4448;50.904;4.694;2024-01-06T13:04:50;7.30;99.90
8824;DHT22;4448;50.904;4.694;2024-01-06T13:07:16;7.30;99.90
8824;DHT22;4448;50.904;4.694;2024-01-06T13:09:42;7.30;99.90
8824;DHT22;4448;50.904;4.694;2024-01-06T13:12:08;7.30;99.90
8824;DHT22;4448;50.904;4.694;2024-01-06T13:14:34;7.20;99.90
8824;DHT22;4448;50.904;4.694;2024-01-06T13:17:01;7.20;99.90
8824;DHT22;4448;50.904;4.694;2024-01-06T13:19:27;7.20;99.90
8824;DHT22;4448;50.904;4.694;2024-01-06T13:21:52;7.20;99.90
8824;DHT22;4448;50.904;4.694;2024-01-06T13:24:18;7.20;99.90
8824;DHT22;4448;50.904;4.694;2024-01-06T13:26:44;7.20;99.90
8824;DHT22;4448;50.904;4.694;2024-01-06T13:29:10;7.20;99.90
8824;DHT22;4448;50.904;4.694;2024-01-06T13:31:36;7.20;99.90
8824;DHT22;4448;50.904;4.694;2024-01-06T13:34:02;7.20;99.90
8824;DHT22;4448;50.904;4.694;2024-01-06T13:36:28;7.20;99.90
8824;DHT22;4448;50.904;4.694;2024-01-06T13:38:54;7.20;99.90
8824;DHT22;4448;50.904;4.694;2024-01-06T13:41:19;7.20;99.90
8824;DHT22;4448;50.904;4.694;2024-01-06T13:43:45;7.20;99.90
8824;DHT22;4448;50.904;4.694;2024-01-06T13:46:11;7.10;99.90
8824;DHT22;4448;50.904;4.694;2024-01-06T13:48:39;7.10;99.90
8824;DHT22;4448;50.904;4.694;2024-01-06T13:51:06;7.10;99.90
8824;DHT22;4448;50.904;4.694;2024-01-06T13:53:32;7.10;99.90
8824;DHT22;4448;50.904;4.694;2024-01-06T13:55:57;7.10;99.90
8824;DHT22;4448;50.904;4.694;2024-01-06T13:58:23;7.10;99.90
8824;DHT22;4448;50.904;4.694;2024-01-06T14:00:49;7.10;99.90
8824;DHT22;4448;50.904;4.694;2024-01-06T14:03:14;7.10;99.90
8824;DHT22;4448;50.904;4.694;2024-01-06T14:05:40;7.10;99.90
8824;DHT22;4448;50.904;4.694;2024-01-06T14:08:06;7.10;99.90
8824;DHT22;4448;50.904;4.694;2024-01-06T14:10:32;7.10;99.90
8824;DHT22;4448;50.904;4.694;2024-01-06T14:12:58;7.10;99.90
8824;DHT22;4448;50.904;4.694;2024-01-06T14:15:23;7.00;99.90
8824;DHT22;4448;50.904;4.694;2024-01-06T14:17:49;7.10;99.90
8824;DHT22;4448;50.904;4.694;2024-01-06T14:20:16;7.00;99.90
8824;DHT22;4448;50.904;4.694;2024-01-06T14:22:45;7.10;99.90
8824;DHT22;4448;50.904;4.694;2024-01-06T14:25:12;7.10;99.90
8824;DHT22;4448;50.904;4.694;2024-01-06T14:27:38;7.10;99.90
8824;DHT22;4448;50.904;4.694;2024-01-06T14:30:05;7.00;99.90
8824;DHT22;4448;50.904;4.694;2024-01-06T14:32:32;7.10;99.90
8824;DHT22;4448;50.904;4.694;2024-01-06T14:34:58;7.10;99.90
8824;DHT22;4448;50.904;4.694;2024-01-06T14:37:24;7.00;99.90
8824;DHT22;4448;50.904;4.694;2024-01-06T14:39:50;7.00;99.90
8824;DHT22;4448;50.904;4.694;2024-01-06T14:42:15;7.00;99.90
8824;DHT22;4448;50.904;4.694;2024-01-06T14:44:44;7.00;99.90
8824;DHT22;4448;50.904;4.694;2024-01-06T14:47:10;7.00;99.90
8824;DHT22;4448;50.904;4.694;2024-01-06T14:49:35;7.00;99.90
8824;DHT22;4448;50.904;4.694;2024-01-06T14:52:01;7.00;99.90
8824;DHT22;4448;50.904;4.694;2024-01-06T14:54:27;7.00;99.90
8824;DHT22;4448;50.904;4.694;2024-01-06T14:56:57;7.00;99.90
8824;DHT22;4448;50.904;4.694;2024-01-06T14:59:23;7.00;99.90
8824;DHT22;4448;50.904;4.694;2024-01-06T15:01:49;6.90;99.90
8824;DHT22;4448;50.904;4.694;2024-01-06T15:04:15;6.90;99.90
8824;DHT22;4448;50.904;4.694;2024-01-06T15:06:42;7.00;99.90
8824;DHT22;4448;50.904;4.694;2024-01-06T15:09:11;7.00;99.90
8824;DHT22;4448;50.904;4.694;2024-01-06T15:11:37;6.90;99.90
8824;DHT22;4448;50.904;4.694;2024-01-06T15:14:02;6.90;99.90
8824;DHT22;4448;50.904;4.694;2024-01-06T15:16:31;6.90;99.90
8824;DHT22;4448;50.904;4.694;2024-01-06T15:18:56;6.90;99.90
8824;DHT22;4448;50.904;4.694;2024-01-06T15:21:25;6.90;99.90
8824;DHT22;4448;50.904;4.694;2024-01-06T15:23:53;6.90;99.90
8824;DHT22;4448;50.904;4.694;2024-01-06T15:26:24;6.90;99.90
8824;DHT22;4448;50.904;4.694;2024-01-06T15:28:49;6.90;99.90
8824;DHT22;4448;50.904;4.694;2024-01-06T15:31:15;6.90;99.90
8824;DHT22;4448;50.904;4.694;2024-01-06T15:33:41;6.90;99.90
8824;DHT22;4448;50.904;4.694;2024-01-06T15:36:08;6.90;99.90
8824;DHT22;4448;50.904;4.694;2024-01-06T15:38:34;6.90;99.90
8824;DHT22;4448;50.904;4.694;2024-01-06T15:40:59;6.90;99.90
8824;DHT22;4448;50.904;4.694;2024-01-06T15:43:26;6.90;99.90
8824;DHT22;4448;50.904;4.694;2024-01-06T15:45:54;6.90;99.90
8824;DHT22;4448;50.904;4.694;2024-01-06T15:48:23;6.90;99.90
8824;DHT22;4448;50.904;4.694;2024-01-06T15:50:49;6.90;99.90
8824;DHT22;4448;50.904;4.694;2024-01-06T15:53:15;6.90;99.90
8824;DHT22;4448;50.904;4.694;2024-01-06T15:55:42;6.90;99.90
8824;DHT22;4448;50.904;4.694;2024-01-06T15:58:08;6.90;99.90
8824;DHT22;4448;50.904;4.694;2024-01-06T16:00:33;6.90;99.90
8824;DHT22;4448;50.904;4.694;2024-01-06T16:03:00;6.90;99.90
8824;DHT22;4448;50.904;4.694;2024-01-06T16:05:26;6.90;99.90
8824;DHT22;4448;50.904;4.694;2024-01-06T16:07:52;6.90;99.90
8824;DHT22;4448;50.904;4.694;2024-01-06T16:10:21;6.90;99.90
8824;DHT22;4448;50.904;4.694;2024-01-06T16:12:49;6.90;99.90
8824;DHT22;4448;50.904;4.694;2024-01-06T16:15:16;6.90;99.90